createdAt,value
2022-09-04T00:00:11.575Z,75.64
2022-09-04T00:03:26.848Z,75.53
2022-09-04T00:06:00.232Z,75.83
2022-09-04T00:08:56.466Z,75.57
2022-09-04T00:12:06.476Z,75.47
2022-09-04T00:15:14.516Z,75.86
2022-09-04T00:18:46.588Z,75.83
2022-09-04T00:21:45.279Z,75.44
2022-09-04T00:24:19.329Z,75.60
2022-09-04T00:27:43.406Z,75.76
2022-09-04T00:30:21.971Z,75.34
2022-09-04T00:33:28.729Z,75.51
2022-09-04T00:36:03.822Z,75.56
2022-09-04T00:39:02.891Z,75.27
2022-09-04T00:42:03.131Z,75.20
2022-09-04T00:45:23.462Z,75.34
2022-09-04T00:49:18.086Z,75.34
2022-09-04T00:52:31.413Z,75.48
2022-09-04T00:56:01.422Z,75.34
2022-09-04T00:59:30.224Z,75.65
2022-09-04T01:02:47.119Z,75.97
2022-09-04T01:06:18.852Z,75.21
2022-09-04T01:09:15.689Z,75.66
2022-09-04T01:12:51.324Z,75.81
2022-09-04T01:15:58.952Z,75.15
2022-09-04T01:18:59.795Z,75.49
2022-09-04T01:22:26.336Z,75.50
2022-09-04T01:25:47.869Z,75.32
2022-09-04T01:29:06.178Z,75.36
2022-09-04T01:31:56.422Z,75.42
2022-09-04T01:35:23.961Z,75.32
2022-09-04T01:38:38.855Z,75.50
2022-09-04T01:42:11.572Z,75.17
2022-09-04T01:44:39.463Z,75.41
2022-09-04T01:47:46.821Z,75.40
2022-09-04T01:50:26.407Z,75.92
2022-09-04T01:53:27.118Z,75.53
2022-09-04T01:56:53.980Z,75.18
2022-09-04T01:59:51.772Z,75.11
2022-09-04T02:03:41.167Z,75.21
2022-09-04T02:07:03.093Z,75.40
2022-09-04T02:09:53.888Z,75.25
2022-09-04T02:13:08.067Z,75.46
2022-09-04T02:16:42.786Z,75.76
2022-09-04T02:20:22.686Z,76.15
2022-09-04T02:23:38.628Z,75.83
2022-09-04T02:26:32.074Z,75.55
2022-09-04T02:29:40.425Z,75.67
2022-09-04T02:32:37.859Z,76.04
2022-09-04T02:35:52.747Z,75.95
2022-09-04T02:39:03.899Z,76.01
2022-09-04T02:42:20.376Z,75.75
2022-09-04T02:45:35.985Z,76.06
2022-09-04T02:49:22.465Z,75.87
2022-09-04T02:52:56.092Z,75.89
2022-09-04T02:56:16.509Z,76.09
2022-09-04T02:59:52.805Z,76.26
2022-09-04T03:02:30.707Z,76.00
2022-09-04T03:05:46.964Z,76.18
2022-09-04T03:08:53.297Z,76.18
2022-09-04T03:11:41.880Z,76.16
2022-09-04T03:15:00.177Z,76.08
2022-09-04T03:18:38.933Z,76.11
2022-09-04T03:21:20.995Z,76.45
2022-09-04T03:24:50.128Z,76.51
2022-09-04T03:27:19.039Z,76.70
2022-09-04T03:30:12.131Z,76.37
2022-09-04T03:33:33.111Z,76.58
2022-09-04T03:36:43.647Z,76.06
2022-09-04T03:39:54.117Z,75.99
2022-09-04T03:43:17.185Z,76.44
2022-09-04T03:47:06.968Z,76.40
2022-09-04T03:51:01.737Z,76.68
2022-09-04T03:53:49.992Z,76.84
2022-09-04T03:57:08.038Z,76.85
2022-09-04T04:00:21.511Z,77.05
2022-09-04T04:03:29.008Z,77.18
2022-09-04T04:06:41.062Z,76.88
2022-09-04T04:10:45.292Z,77.03
2022-09-04T04:14:05.375Z,77.15
2022-09-04T04:17:12.577Z,76.88
2022-09-04T04:21:00.255Z,77.15
2022-09-04T04:24:14.608Z,77.12
2022-09-04T04:26:56.283Z,76.67
2022-09-04T04:30:10.108Z,76.92
2022-09-04T04:33:17.557Z,76.71
2022-09-04T04:36:26.848Z,76.66
2022-09-04T04:39:40.151Z,76.57
2022-09-04T04:42:47.595Z,76.87
2022-09-04T04:46:08.944Z,76.57
2022-09-04T04:49:20.254Z,76.37
2022-09-04T04:52:44.365Z,76.86
2022-09-04T04:55:41.923Z,76.82
2022-09-04T04:58:50.701Z,76.96
2022-09-04T05:01:52.954Z,77.02
2022-09-04T05:05:05.796Z,77.18
2022-09-04T05:08:08.360Z,76.73
2022-09-04T05:10:58.510Z,76.81
2022-09-04T05:14:08.356Z,76.62
2022-09-04T05:17:49.228Z,76.65
2022-09-04T05:20:45.699Z,76.54
2022-09-04T05:23:49.500Z,76.34
2022-09-04T05:26:56.109Z,76.43
2022-09-04T05:30:03.506Z,76.34
2022-09-04T05:33:10.612Z,76.40
2022-09-04T05:36:31.802Z,76.29
2022-09-04T05:39:40.243Z,76.59
2022-09-04T05:42:56.315Z,76.60
2022-09-04T05:46:18.197Z,76.70
2022-09-04T05:49:51.893Z,76.18
2022-09-04T05:53:01.067Z,76.36
2022-09-04T05:56:00.644Z,76.46
2022-09-04T05:59:50.133Z,76.30
2022-09-04T06:03:14.994Z,76.29
2022-09-04T06:06:52.827Z,76.44
2022-09-04T06:10:03.947Z,76.21
2022-09-04T06:13:23.733Z,76.34
2022-09-04T06:17:03.778Z,75.92
2022-09-04T06:20:01.936Z,76.32
2022-09-04T06:23:25.920Z,75.92
2022-09-04T06:27:24.835Z,75.76
2022-09-04T06:30:16.411Z,75.71
2022-09-04T06:33:50.277Z,75.62
2022-09-04T06:37:10.825Z,75.44
2022-09-04T06:40:04.859Z,76.03
2022-09-04T06:43:38.111Z,75.91
2022-09-04T06:46:57.501Z,75.28
2022-09-04T06:50:13.536Z,74.99
2022-09-04T06:53:08.676Z,74.91
2022-09-04T06:56:40.644Z,74.92
2022-09-04T06:59:55.880Z,74.95
2022-09-04T07:03:14.824Z,74.74
2022-09-04T07:06:24.781Z,74.47
2022-09-04T07:09:28.468Z,73.84
2022-09-04T07:12:50.356Z,74.00
2022-09-04T07:15:43.809Z,73.97
2022-09-04T07:18:50.033Z,74.09
2022-09-04T07:22:26.864Z,74.04
2022-09-04T07:26:00.629Z,73.11
2022-09-04T07:29:26.045Z,73.12
2022-09-04T07:33:00.336Z,73.32
2022-09-04T07:36:29.679Z,72.84
2022-09-04T07:39:23.469Z,73.14
2022-09-04T07:42:31.166Z,72.58
2022-09-04T07:45:38.543Z,71.71
2022-09-04T07:48:55.503Z,71.60
2022-09-04T07:51:33.222Z,71.55
2022-09-04T07:54:56.724Z,71.15
2022-09-04T07:58:19.839Z,71.39
2022-09-04T08:01:40.400Z,71.33
2022-09-04T08:05:04.765Z,70.97
2022-09-04T08:07:34.889Z,71.22
2022-09-04T08:10:26.464Z,71.27
2022-09-04T08:14:00.532Z,70.64
2022-09-04T08:16:44.922Z,70.48
2022-09-04T08:19:48.960Z,70.63
2022-09-04T08:23:01.860Z,70.06
2022-09-04T08:26:41.706Z,69.78
2022-09-04T08:29:57.798Z,69.33
2022-09-04T08:33:15.923Z,68.96
2022-09-04T08:36:03.485Z,69.55
2022-09-04T08:39:09.634Z,69.07
2022-09-04T08:42:00.577Z,68.90
2022-09-04T08:45:30.447Z,68.73
2022-09-04T08:49:18.555Z,68.75
2022-09-04T08:52:41.132Z,68.42
2022-09-04T08:55:46.921Z,68.75
2022-09-04T08:59:13.474Z,68.82
2022-09-04T09:02:08.565Z,68.05
2022-09-04T09:05:00.913Z,67.91
2022-09-04T09:07:59.668Z,68.03
2022-09-04T09:11:41.521Z,67.75
2022-09-04T09:15:39.667Z,66.79
2022-09-04T09:19:02.980Z,65.72
2022-09-04T09:22:03.763Z,66.16
2022-09-04T09:25:04.645Z,66.78
2022-09-04T09:28:40.900Z,65.91
2022-09-04T09:32:09.208Z,64.62
2022-09-04T09:35:58.464Z,64.14
2022-09-04T09:39:19.656Z,64.89
2022-09-04T09:42:21.525Z,63.80
2022-09-04T09:45:31.720Z,63.25
2022-09-04T09:48:58.444Z,63.56
2022-09-04T09:52:23.153Z,63.01
2022-09-04T09:56:09.489Z,62.34
2022-09-04T09:59:44.736Z,62.10
2022-09-04T10:02:45.950Z,61.24
2022-09-04T10:05:57.215Z,60.76
2022-09-04T10:09:28.939Z,61.49
2022-09-04T10:12:57.865Z,59.46
2022-09-04T10:16:24.874Z,56.64
2022-09-04T10:19:50.680Z,58.19
2022-09-04T10:23:13.314Z,56.15
2022-09-04T10:26:16.076Z,56.54
2022-09-04T10:29:37.138Z,56.83
2022-09-04T10:32:33.013Z,56.68
2022-09-04T10:36:22.624Z,56.23
2022-09-04T10:40:11.948Z,51.98
2022-09-04T10:43:16.960Z,55.19
2022-09-04T10:46:22.991Z,55.45
2022-09-04T10:49:47.380Z,53.62
2022-09-04T10:53:21.501Z,53.59
2022-09-04T10:56:23.130Z,52.87
2022-09-04T10:59:31.060Z,52.98
2022-09-04T11:03:25.658Z,52.17
2022-09-04T11:07:18.635Z,48.54
2022-09-04T11:11:18.200Z,51.21
2022-09-04T11:14:34.196Z,48.92
2022-09-04T11:17:54.832Z,41.35
2022-09-04T11:21:07.818Z,38.53
2022-09-04T11:24:25.539Z,41.24
2022-09-04T11:27:51.879Z,41.88
2022-09-04T11:30:48.507Z,46.02
2022-09-04T11:34:21.820Z,45.03
2022-09-04T11:37:59.352Z,40.39
2022-09-04T11:41:29.057Z,45.00
2022-09-04T11:44:16.916Z,46.16
2022-09-04T11:47:30.537Z,42.99
2022-09-04T11:51:16.405Z,42.91
2022-09-04T11:54:17.557Z,43.67
2022-09-04T11:58:13.920Z,42.99
2022-09-04T12:01:52.594Z,42.56
2022-09-04T12:04:49.378Z,43.47
2022-09-04T12:08:10.415Z,43.79
2022-09-04T12:11:56.489Z,41.41
2022-09-04T12:14:58.785Z,43.08
2022-09-04T12:18:24.002Z,44.01
2022-09-04T12:21:25.415Z,42.45
2022-09-04T12:24:30.988Z,39.78
2022-09-04T12:27:32.101Z,43.63
2022-09-04T12:31:07.806Z,43.31
2022-09-04T12:34:38.219Z,37.20
2022-09-04T12:38:16.788Z,38.59
2022-09-04T12:41:19.483Z,34.31
2022-09-04T12:44:32.384Z,37.36
2022-09-04T12:47:33.902Z,33.21
2022-09-04T12:51:01.416Z,34.53
2022-09-04T12:54:29.796Z,34.78
2022-09-04T12:57:49.503Z,32.51
2022-09-04T13:00:17.619Z,33.73
2022-09-04T13:03:20.945Z,30.93
2022-09-04T13:06:40.676Z,31.07
2022-09-04T13:10:32.669Z,32.11
2022-09-04T13:13:25.229Z,26.96
2022-09-04T13:16:20.416Z,29.32
2022-09-04T13:19:47.334Z,29.74
2022-09-04T13:23:03.203Z,26.68
2022-09-04T13:26:15.575Z,28.42
2022-09-04T13:29:12.238Z,29.98
2022-09-04T13:32:21.733Z,28.95
2022-09-04T13:35:47.367Z,26.49
2022-09-04T13:39:04.313Z,27.28
2022-09-04T13:42:04.725Z,29.38
2022-09-04T13:45:12.160Z,25.98
2022-09-04T13:48:12.962Z,27.42
2022-09-04T13:51:01.065Z,28.65
2022-09-04T13:54:20.159Z,28.74
2022-09-04T13:57:18.348Z,28.86
2022-09-04T13:59:50.361Z,27.94
2022-09-04T14:02:25.470Z,26.96
2022-09-04T14:05:20.580Z,29.40
2022-09-04T14:08:04.914Z,27.33
2022-09-04T14:11:20.436Z,26.07
2022-09-04T14:15:07.711Z,25.65
2022-09-04T14:18:28.636Z,25.50
2022-09-04T14:21:10.989Z,28.00
2022-09-04T14:24:32.865Z,26.48
2022-09-04T14:28:06.463Z,26.39
2022-09-04T14:31:10.660Z,26.70
2022-09-04T14:34:23.072Z,26.28
2022-09-04T14:37:08.155Z,24.40
2022-09-04T14:40:04.440Z,25.01
2022-09-04T14:43:07.356Z,25.35
2022-09-04T14:46:51.712Z,26.61
2022-09-04T14:49:25.237Z,25.60
2022-09-04T14:51:58.036Z,24.70
2022-09-04T14:54:39.370Z,24.51
2022-09-04T14:57:45.085Z,27.41
2022-09-04T15:00:20.116Z,24.29
2022-09-04T15:03:22.074Z,25.96
2022-09-04T15:06:12.422Z,27.23
2022-09-04T15:08:41.016Z,26.56
2022-09-04T15:11:34.621Z,26.47
2022-09-04T15:14:28.343Z,27.77
2022-09-04T15:17:12.748Z,26.19
2022-09-04T15:20:17.035Z,23.93
2022-09-04T15:23:11.543Z,25.65
2022-09-04T15:26:13.097Z,24.36
2022-09-04T15:28:54.428Z,24.36
2022-09-04T15:31:41.928Z,24.89
2022-09-04T15:34:25.592Z,24.22
2022-09-04T15:36:54.493Z,25.42
2022-09-04T15:39:44.263Z,25.52
2022-09-04T15:42:12.401Z,24.69
2022-09-04T15:44:49.088Z,24.98
2022-09-04T15:48:05.395Z,24.71
2022-09-04T15:50:56.791Z,24.97
2022-09-04T15:53:41.810Z,24.10
2022-09-04T15:56:41.983Z,24.78
2022-09-04T15:59:18.229Z,25.27
2022-09-04T16:02:18.527Z,25.74
2022-09-04T16:05:41.373Z,25.91
2022-09-04T16:08:49.884Z,25.25
2022-09-04T16:11:39.475Z,25.72
2022-09-04T16:14:54.352Z,25.59
2022-09-04T16:17:32.948Z,26.68
2022-09-04T16:20:51.343Z,25.91
2022-09-04T16:23:33.699Z,25.44
2022-09-04T16:26:23.803Z,26.75
2022-09-04T16:29:41.669Z,27.26
2022-09-04T16:32:18.312Z,27.04
2022-09-04T16:35:19.076Z,27.41
2022-09-04T16:38:09.303Z,29.10
2022-09-04T16:41:12.113Z,28.15
2022-09-04T16:43:39.619Z,29.45
2022-09-04T16:46:33.248Z,29.84
2022-09-04T16:49:21.953Z,31.83
2022-09-04T16:52:20.264Z,31.04
2022-09-04T16:55:31.272Z,29.27
2022-09-04T16:58:39.917Z,29.55
2022-09-04T17:01:41.020Z,30.40
2022-09-04T17:04:40.279Z,30.33
2022-09-04T17:07:21.469Z,30.99
2022-09-04T17:10:33.216Z,31.14
2022-09-04T17:14:09.078Z,31.45
2022-09-04T17:17:31.540Z,31.48
2022-09-04T17:20:07.712Z,31.98
2022-09-04T17:28:58.137Z,31.96
2022-09-04T17:29:07.714Z,32.99
2022-09-04T17:30:02.785Z,33.47
2022-09-04T17:37:42.045Z,33.31
2022-09-04T17:40:36.078Z,33.04
2022-09-04T17:40:41.901Z,33.70
2022-09-04T17:43:23.297Z,34.44
2022-09-04T17:46:36.600Z,34.86
2022-09-04T17:49:27.576Z,34.38
2022-09-04T17:52:08.758Z,34.36
2022-09-04T17:54:48.951Z,35.13
2022-09-04T17:58:09.252Z,35.50
2022-09-04T18:01:31.983Z,35.42
2022-09-04T18:05:03.465Z,36.84
2022-09-04T18:08:08.898Z,37.01
2022-09-04T18:10:57.684Z,44.05
2022-09-04T18:14:01.620Z,44.46
2022-09-04T18:16:51.772Z,45.16
2022-09-04T18:20:17.781Z,45.63
2022-09-04T18:22:44.830Z,45.70
2022-09-04T18:25:34.103Z,43.70
2022-09-04T18:28:25.528Z,43.12
2022-09-04T18:37:12.604Z,40.68
2022-09-04T18:37:19.202Z,42.19
2022-09-04T18:39:13.186Z,42.26
2022-09-04T18:50:26.019Z,42.65
2022-09-04T18:50:31.758Z,40.72
2022-09-04T18:50:40.778Z,40.75
2022-09-04T18:51:21.368Z,41.62
2022-09-04T18:54:20.178Z,42.44
2022-09-04T18:56:56.368Z,42.86
2022-09-04T18:59:38.232Z,43.16
2022-09-04T19:02:27.075Z,43.07
2022-09-04T19:05:11.087Z,43.02
2022-09-04T19:07:52.449Z,42.90
2022-09-04T19:10:54.555Z,43.23
2022-09-04T19:14:10.547Z,43.67
2022-09-04T19:17:03.280Z,44.28
2022-09-04T19:19:54.482Z,44.19
2022-09-04T19:22:45.161Z,44.76
2022-09-04T19:25:30.685Z,44.47
2022-09-04T19:28:24.722Z,44.83
2022-09-04T19:31:48.097Z,45.35
2022-09-04T19:34:47.771Z,44.87
2022-09-04T19:40:42.846Z,45.28
2022-09-04T19:46:00.908Z,45.73
2022-09-04T19:46:05.114Z,45.94
2022-09-04T19:48:01.810Z,46.30
2022-09-04T19:53:21.953Z,46.94
2022-09-04T19:53:49.389Z,47.46
2022-09-04T19:57:17.818Z,47.79
2022-09-04T19:59:45.568Z,47.79
2022-09-04T20:02:33.985Z,48.44
2022-09-04T20:05:30.984Z,48.40
2022-09-04T20:08:51.797Z,48.05
2022-09-04T20:11:55.645Z,48.58
2022-09-04T20:14:44.152Z,49.09
2022-09-04T20:18:04.511Z,48.93
2022-09-04T20:21:07.256Z,49.37
2022-09-04T20:24:24.245Z,49.63
2022-09-04T20:27:20.364Z,50.30
2022-09-04T20:30:16.436Z,49.82
2022-09-04T20:33:16.301Z,50.04
2022-09-04T20:36:02.769Z,50.35
2022-09-04T20:39:07.164Z,50.39
2022-09-04T20:42:12.553Z,50.44
2022-09-04T20:48:34.549Z,50.44
2022-09-04T20:52:52.602Z,50.43
2022-09-04T20:52:56.702Z,51.37
2022-09-04T20:55:01.668Z,51.21
2022-09-04T21:03:09.575Z,50.79
2022-09-04T21:03:10.905Z,51.05
2022-09-04T21:04:45.993Z,51.35
2022-09-04T21:07:53.956Z,51.38
2022-09-04T21:10:55.532Z,51.59
2022-09-04T21:14:00.646Z,52.19
2022-09-04T21:17:27.535Z,52.52
2022-09-04T21:20:29.524Z,52.58
2022-09-04T21:23:29.356Z,52.30
2022-09-04T21:26:24.156Z,53.46
2022-09-04T21:29:35.966Z,52.95
2022-09-04T21:32:22.864Z,52.88
2022-09-04T21:35:29.324Z,52.87
2022-09-04T21:38:27.078Z,53.08
2022-09-04T21:41:23.043Z,53.86
2022-09-04T21:44:51.863Z,54.48
2022-09-04T21:47:37.061Z,54.62
2022-09-04T21:50:44.993Z,55.18
2022-09-04T21:54:37.959Z,55.34
2022-09-04T22:02:27.917Z,55.41
2022-09-04T22:02:39.908Z,56.32
2022-09-04T22:05:18.501Z,56.66
2022-09-04T22:12:22.343Z,56.71
2022-09-04T22:13:38.520Z,57.21
2022-09-04T22:14:59.255Z,56.72
2022-09-04T22:18:51.441Z,57.19
2022-09-04T22:21:55.437Z,57.55
2022-09-04T22:25:37.324Z,57.67
2022-09-04T22:28:51.404Z,58.78
2022-09-04T22:32:10.160Z,59.91
2022-09-04T22:35:38.360Z,60.70
2022-09-04T22:39:20.020Z,60.94
2022-09-04T22:43:07.577Z,59.99
2022-09-04T22:46:30.630Z,60.32
2022-09-04T22:49:49.240Z,61.25
2022-09-04T22:53:15.769Z,61.73
2022-09-04T22:56:11.201Z,61.66
2022-09-04T22:59:26.318Z,61.51
2022-09-04T23:08:01.279Z,59.66
2022-09-04T23:13:43.882Z,59.35
2022-09-04T23:13:58.767Z,59.51
2022-09-04T23:17:06.493Z,59.58
2022-09-04T23:26:35.249Z,59.69
2022-09-04T23:26:51.092Z,59.88
2022-09-04T23:27:28.086Z,60.15
2022-09-04T23:30:26.550Z,58.64
2022-09-04T23:33:53.903Z,59.33
2022-09-04T23:37:35.227Z,58.95
2022-09-04T23:40:59.335Z,59.43
2022-09-04T23:44:50.905Z,60.29
2022-09-04T23:48:06.929Z,60.00
2022-09-04T23:51:15.099Z,60.09
2022-09-04T23:54:50.391Z,60.57
2022-09-04T23:57:29.276Z,60.89
